Latest Weather Observations for Edenhope

IDV60801

Issued at 7:32 pm EDT Friday 20 October 2017 (issued every 30 minutes, with the page automatically refreshed every 10 minutes)

About weather observations | Map of weather stations | Latest weather observations for VIC | Other Formats
Station Details ID: 079099 Name: EDENHOPE AIRPORT Lat: -37.02 Lon: 141.27 Height: 155.0 m
Data from the previous 72 hours. | See also: Recent months at Edenhope
Date/Time
EDT
Temp
°C
App
Temp
°C
Dew
Point
°C
Rel
Hum
%
Delta-T
°C
Wind Press
QNH
hPa
Press
MSL
hPa
Rain since
9am
mm
Dir  Spd
km/h
Gust
km/h
Spd
kts
Gust
kts
20/07:30pm 11.7 7.6 4.2 60 3.4 S 15 24 8 13 - - 0.0
20/07:00pm 13.1 9.0 4.5 56 4.0 S 15 24 8 13 - - 0.0
20/06:30pm 14.2 9.9 5.3 55 4.2 S 17 26 9 14 - - 0.0
20/06:00pm 14.9 10.0 5.1 52 4.6 S 20 32 11 17 - - 0.0
20/05:30pm 15.5 10.9 5.7 52 4.7 S 19 26 10 14 - - 0.0
20/05:00pm 16.1 11.6 6.0 51 4.9 S 19 28 10 15 - - 0.0
20/04:30pm 16.1 11.9 5.7 50 5.0 SSW 17 24 9 13 - - 0.0
20/04:00pm 16.5 11.4 5.8 49 5.2 SSW 22 32 12 17 - - 0.0
20/03:30pm 17.1 12.8 5.4 46 5.7 SSW 17 28 9 15 - - 0.0
20/03:00pm 16.8 12.5 5.1 46 5.6 S 17 24 9 13 - - 0.0
20/02:30pm 16.8 12.1 5.1 46 5.6 SSE 19 30 10 16 - - 0.0
20/02:00pm 16.3 11.9 5.0 47 5.4 S 17 28 9 15 - - 0.0
20/01:30pm 16.4 12.1 5.1 47 5.4 S 17 28 9 15 - - 0.0
20/01:00pm 16.3 12.2 6.4 52 4.9 SSE 17 30 9 16 - - 0.0
20/12:30pm 15.1 11.1 5.0 51 4.8 S 15 24 8 13 - - 0.0
20/12:00pm 13.6 9.5 4.5 54 4.2 S 15 30 8 16 - - 0.0
20/11:30am 14.5 10.1 5.0 53 4.5 S 17 24 9 13 - - 0.0
20/11:00am 13.7 9.2 4.3 53 4.3 S 17 22 9 12 - - 0.0
20/10:30am 12.3 7.0 4.8 60 3.5 S 22 33 12 18 - - 0.0
20/10:00am 12.6 7.8 5.5 62 3.3 S 20 32 11 17 - - 0.0
20/09:30am 12.6 9.0 6.6 67 2.9 S 15 24 8 13 - - 0.0
20/09:00am 11.1 8.1 5.8 70 2.5 S 11 20 6 11 - - 0.0
20/08:30am 10.2 7.5 5.6 73 2.1 SSW 9 19 5 10 - - 0.0
20/08:00am 8.7 6.6 5.8 82 1.3 SW 6 11 3 6 - - 0.0
20/07:30am 7.2 5.3 5.0 86 1.0 SW 4 6 2 3 - - 0.0
20/07:00am 7.2 5.3 5.0 86 1.0 SSW 4 7 2 4 - - 0.0
20/06:30am 7.7 5.3 5.3 85 1.1 SSW 7 11 4 6 - - 0.0
20/06:00am 8.4 5.3 5.5 82 1.3 SSW 11 19 6 10 - - 0.0
20/05:30am 8.6 5.5 5.7 82 1.3 SSW 11 19 6 10 - - 0.0
20/05:00am 8.8 5.9 6.4 85 1.1 SSW 11 17 6 9 - - 0.0
20/04:30am 9.1 6.4 7.2 88 0.9 SSW 11 19 6 10 - - 0.0
20/04:00am 9.4 7.7 8.3 93 0.5 SSW 7 11 4 6 - - 0.0
20/03:30am 8.9 7.3 7.8 93 0.5 SW 6 9 3 5 - - 0.0
20/03:00am 9.3 7.7 7.9 91 0.7 SW 6 9 3 5 - - 0.0
20/02:30am 9.6 7.9 8.4 92 0.6 SW 7 13 4 7 - - 0.0
20/02:00am 9.1 7.5 7.9 92 0.6 SW 6 7 3 4 - - 0.0
20/01:30am 8.9 7.0 7.4 90 0.7 SW 7 9 4 5 - - 0.0
20/01:00am 9.5 7.4 8.1 91 0.7 SW 9 13 5 7 - - 0.0
20/12:30am 8.4 6.9 7.0 91 0.7 WSW 4 6 2 3 - - 0.0
20/12:00am 8.7 7.2 6.7 87 0.9 W 4 4 2 2 - - 0.0
 
Date/Time
EDT
Temp
°C
App
Temp
°C
Dew
Point
°C
Rel
Hum
%
Delta-T
°C
Wind Press
QNH
hPa
Press
MSL
hPa
Rain since
9am
mm
Dir  Spd
km/h
Gust
km/h
Spd
kts
Gust
kts
19/11:30pm 8.8 6.9 6.8 87 0.9 WSW 6 9 3 5 - - 0.0
19/11:00pm 8.8 6.7 6.8 87 0.9 WSW 7 9 4 5 - - 0.0
19/10:30pm 9.4 7.3 6.7 83 1.3 SW 7 9 4 5 - - 0.0
19/10:00pm 9.9 7.5 6.8 81 1.5 WSW 9 13 5 7 - - 0.0
19/09:30pm 9.8 7.7 6.5 80 1.6 SW 7 9 4 5 - - 0.0
19/09:00pm 10.8 8.7 6.6 75 2.0 SW 7 11 4 6 - - 0.0
19/08:30pm 11.8 8.1 6.3 69 2.6 WSW 15 20 8 11 - - 0.0
19/08:00pm 12.6 8.4 5.5 62 3.3 WSW 17 26 9 14 - - 0.0
19/07:30pm 13.9 9.4 6.3 60 3.7 WSW 19 33 10 18 - - 0.0
19/07:00pm 14.5 10.3 7.5 63 3.5 WSW 19 26 10 14 - - 0.0
19/06:30pm 14.9 10.7 8.2 64 3.4 SW 20 30 11 16 - - 0.0
19/06:00pm 15.7 11.4 7.7 59 4.0 WSW 20 32 11 17 - - 0.0
19/05:30pm 17.2 13.1 8.6 57 4.5 SW 20 30 11 16 - - 0.0
19/05:00pm 17.1 13.2 8.5 57 4.4 WSW 19 30 10 16 - - 0.0
19/04:30pm 16.8 12.6 9.7 63 3.7 WSW 22 32 12 17 - - 0.0
19/04:00pm 17.1 13.0 8.8 58 4.3 W 20 32 11 17 - - 0.0
19/03:30pm 17.1 13.4 10.0 63 3.8 WSW 20 35 11 19 - - 0.0
19/03:00pm 18.0 14.3 11.6 66 3.5 WSW 22 35 12 19 - - 0.0
19/02:30pm 18.4 14.8 11.7 65 3.7 WSW 22 35 12 19 - - 0.0
19/02:00pm 18.8 15.9 12.8 68 3.4 WSW 20 30 11 16 - - 0.0
19/01:30pm 17.9 15.1 12.6 71 3.0 WSW 19 26 10 14 - - 0.0
19/01:00pm 18.7 15.3 13.8 73 2.8 WSW 24 35 13 19 - - 0.0
19/12:30pm 17.9 15.0 14.0 78 2.2 WSW 22 32 12 17 - - 0.0
19/12:00pm 18.6 16.5 15.1 80 2.1 W 20 30 11 16 - - 0.0
19/11:30am 19.1 16.9 16.0 82 1.9 W 22 33 12 18 - - 0.0
19/11:00am 19.7 17.7 16.5 82 1.9 WNW 22 33 12 18 - - 0.0
19/10:30am 19.5 16.4 15.6 78 2.3 WNW 26 35 14 19 - - 0.0
19/10:00am 20.3 18.8 16.3 78 2.4 WNW 19 28 10 15 - - 0.0
19/09:30am 19.2 18.8 16.1 82 1.9 WNW 13 20 7 11 - - 0.0
19/09:00am 18.7 19.1 16.3 86 1.4 NW 9 13 5 7 - - 3.6
19/08:30am 18.3 19.4 17.0 92 0.8 N 7 9 4 5 - - 3.6
19/08:00am 17.5 18.6 17.0 97 0.3 NNE 7 9 4 5 - - 3.6
19/07:30am 17.1 18.2 16.5 96 0.4 N 6 7 3 4 - - 3.6
19/07:00am 17.2 18.1 16.6 96 0.4 NE 7 9 4 5 - - 3.4
19/06:30am 17.1 18.0 16.5 96 0.4 NE 7 13 4 7 - - 3.4
19/06:00am 17.2 17.7 16.6 96 0.4 ENE 9 11 5 6 - - 3.4
19/05:30am 17.4 18.6 16.8 96 0.4 ENE 6 9 3 5 - - 3.4
19/05:00am 17.4 19.6 16.6 95 0.5 CALM 0 0 0 0 - - 3.4
19/04:30am 17.4 18.9 16.6 95 0.5 SE 4 7 2 4 - - 3.4
19/04:00am 17.7 19.2 16.6 93 0.7 SSW 4 6 2 3 - - 2.4
19/03:30am 17.8 18.8 16.8 94 0.6 S 7 9 4 5 - - 2.0
19/03:00am 17.8 18.8 16.8 94 0.6 SW 7 9 4 5 - - 2.0
19/02:30am 17.9 19.1 16.8 93 0.7 SSW 6 9 3 5 - - 2.0
19/02:00am 18.4 18.8 16.4 88 1.2 WSW 9 13 5 7 - - 0.8
19/01:30am 18.8 18.7 16.0 84 1.7 SSW 11 19 6 10 - - 0.6
19/01:00am 20.0 19.9 16.0 78 2.4 W 11 32 6 17 - - 0.6
19/12:30am 22.9 22.4 13.9 57 5.3 N 9 13 5 7 - - 0.0
19/12:00am 23.6 22.0 14.0 55 5.7 NNW 15 24 8 13 - - 0.0
 
Date/Time
EDT
Temp
°C
App
Temp
°C
Dew
Point
°C
Rel
Hum
%
Delta-T
°C
Wind Press
QNH
hPa
Press
MSL
hPa
Rain since
9am
mm
Dir  Spd
km/h
Gust
km/h
Spd
kts
Gust
kts
18/11:30pm 24.2 22.8 13.4 51 6.3 NNE 13 20 7 11 - - 0.0
18/11:00pm 23.3 22.8 13.8 55 5.6 NE 9 13 5 7 - - 0.0
18/10:30pm 23.7 22.8 13.6 53 5.9 NE 11 15 6 8 - - 0.0
18/10:00pm 23.8 23.2 13.4 52 6.1 ENE 9 13 5 7 - - 0.0
18/09:30pm 24.7 23.7 13.3 49 6.7 NE 11 19 6 10 - - 0.0
18/09:00pm 25.5 22.8 13.0 46 7.3 NNE 19 28 10 15 - - 0.0
18/08:30pm 23.6 23.9 13.5 53 5.9 NNE 4 6 2 3 - - 0.0
18/08:00pm 25.7 24.9 11.8 42 8.0 NNE 7 9 4 5 - - 0.0
18/07:30pm 26.4 26.4 12.5 42 8.1 N 4 7 2 4 - - 0.0
18/07:00pm 26.5 26.1 12.9 43 8.0 NNW 7 9 4 5 - - 0.0
18/06:30pm 29.3 28.2 11.8 34 10.2 NNW 9 19 5 10 - - 0.0
18/06:00pm 30.1 28.8 12.5 34 10.4 NNW 11 17 6 9 - - 0.0
18/05:30pm 30.2 27.6 10.7 30 11.2 NNW 15 22 8 12 - - 0.0
18/05:00pm 30.4 28.4 11.4 31 11.1 NNW 13 19 7 10 - - 0.0
18/04:30pm 30.1 27.1 10.6 30 11.2 NNW 17 28 9 15 - - 0.0
18/04:00pm 31.9 28.8 11.7 29 11.9 NNW 19 30 10 16 - - 0.0
18/03:30pm 31.6 27.4 9.8 26 12.5 NNW 22 32 12 17 - - 0.0
18/03:00pm 31.9 28.8 11.7 29 11.9 NNW 19 33 10 18 - - 0.0
18/02:30pm 31.4 28.3 12.2 30 11.4 NNW 20 33 11 18 - - 0.0
18/02:00pm 31.1 27.1 10.4 28 11.9 NNW 22 37 12 20 - - 0.0
18/01:30pm 30.4 25.8 10.9 30 11.3 NNW 26 43 14 23 - - 0.0
18/01:00pm 30.4 25.9 11.4 31 11.1 NNW 26 39 14 21 - - 0.0
18/12:30pm 29.9 25.8 11.4 32 10.8 NNW 24 37 13 20 - - 0.0
18/12:00pm 29.4 26.2 11.9 34 10.2 N 20 30 11 16 - - 0.0
18/11:30am 28.0 25.5 12.4 38 9.1 NNE 17 22 9 12 - - 0.0
18/11:00am 26.9 24.5 12.5 40 8.4 N 17 24 9 13 - - 0.0
18/10:30am 25.4 22.3 11.6 42 7.9 N 19 26 10 14 - - 0.0
18/10:00am 24.6 21.8 11.2 43 7.6 NNE 17 24 9 13 - - 0.0
18/09:30am 23.2 19.7 10.3 44 7.1 N 19 28 10 15 - - 0.0
18/09:00am 22.3 19.4 9.8 45 6.8 NNE 15 20 8 11 - - 0.0
18/08:30am 20.8 17.2 8.4 45 6.5 NNE 17 28 9 15 - - 0.0
18/08:00am 19.2 15.5 7.9 48 5.8 NNE 17 24 9 13 - - 0.0
18/07:30am 18.2 14.7 7.3 49 5.5 NE 15 22 8 12 - - 0.0
18/07:00am 17.1 14.4 7.5 53 4.9 NE 11 17 6 9 - - 0.0
18/06:30am 17.2 14.2 7.5 53 4.9 NE 13 19 7 10 - - 0.0
18/06:00am 17.4 14.4 7.5 52 5.0 NE 13 17 7 9 - - 0.0
18/05:30am 17.8 15.1 7.5 51 5.2 NE 11 15 6 8 - - 0.0
18/05:00am 17.8 15.5 7.5 51 5.2 NE 9 15 5 8 - - 0.0
18/04:30am 18.1 15.4 7.2 49 5.5 NE 11 19 6 10 - - 0.0
18/04:00am 18.3 15.2 7.4 49 5.5 NE 13 22 7 12 - - 0.0
18/03:30am 18.6 15.5 7.4 48 5.7 NE 13 20 7 11 - - 0.0
18/03:00am 19.3 16.2 7.4 46 6.1 NE 13 19 7 10 - - 0.0
18/02:30am 19.8 16.4 7.5 45 6.3 NE 15 22 8 12 - - 0.0
18/02:00am 20.3 16.9 7.7 44 6.5 NE 15 22 8 12 - - 0.0
18/01:30am 20.7 17.3 7.7 43 6.8 NE 15 20 8 11 - - 0.0
18/01:00am 21.4 17.6 7.6 41 7.2 NE 17 24 9 13 - - 0.0
18/12:30am 21.8 18.0 7.6 40 7.4 NE 17 26 9 14 - - 0.0
18/12:00am 22.0 18.5 7.0 38 7.8 NE 15 24 8 13 - - 0.0
 
Date/Time
EDT
Temp
°C
App
Temp
°C
Dew
Point
°C
Rel
Hum
%
Delta-T
°C
Wind Press
QNH
hPa
Press
MSL
hPa
Rain since
9am
mm
Dir  Spd
km/h
Gust
km/h
Spd
kts
Gust
kts
17/11:30pm 21.9 18.8 7.3 39 7.6 NE 13 22 7 12 - - 0.0
17/11:00pm 22.0 19.2 7.0 38 7.8 NE 11 17 6 9 - - 0.0
17/10:30pm 22.8 20.1 7.4 37 8.1 NE 11 17 6 9 - - 0.0
17/10:00pm 22.7 20.5 7.7 38 7.9 NE 9 15 5 8 - - 0.0
17/09:30pm 22.9 20.8 8.2 39 7.8 NE 9 13 5 7 - - 0.0
17/09:00pm 22.8 21.5 9.9 44 7.1 ENE 7 13 4 7 - - 0.0
17/08:30pm 22.8 21.9 11.2 48 6.5 ENE 7 9 4 5 - - 0.0
17/08:00pm 24.3 24.0 12.6 48 6.8 NE 6 7 3 4 - - 0.0

Other Formats:

Comma delimited format used in spreadsheet applications
http://www.bom.gov.au/fwo/IDV60801/IDV60801.95832.axf

JavaScript Object Notation format (JSON) in row-major order
http://www.bom.gov.au/fwo/IDV60801/IDV60801.95832.json